sensor_id;sensor_type;location;lat;lon;timestamp;P1;durP1;ratioP1;P2;durP2;ratioP2
22965;SDS011;11649;48.090;9.754;2023-04-03T00:01:16;8.20;;;6.55;;
22965;SDS011;11649;48.090;9.754;2023-04-03T00:03:43;6.65;;;5.95;;
22965;SDS011;11649;48.090;9.754;2023-04-03T00:06:11;6.95;;;6.03;;
22965;SDS011;11649;48.090;9.754;2023-04-03T00:08:38;8.38;;;6.85;;
22965;SDS011;11649;48.090;9.754;2023-04-03T00:11:06;7.85;;;6.63;;
22965;SDS011;11649;48.090;9.754;2023-04-03T00:13:34;7.07;;;6.38;;
22965;SDS011;11649;48.090;9.754;2023-04-03T00:16:02;7.07;;;6.38;;
22965;SDS011;11649;48.090;9.754;2023-04-03T00:18:29;8.68;;;6.65;;
22965;SDS011;11649;48.090;9.754;2023-04-03T00:20:56;7.90;;;6.53;;
22965;SDS011;11649;48.090;9.754;2023-04-03T00:23:23;7.60;;;6.80;;
22965;SDS011;11649;48.090;9.754;2023-04-03T00:25:50;8.18;;;7.05;;
22965;SDS011;11649;48.090;9.754;2023-04-03T00:28:18;8.13;;;7.00;;
22965;SDS011;11649;48.090;9.754;2023-04-03T00:30:45;8.05;;;7.25;;
22965;SDS011;11649;48.090;9.754;2023-04-03T00:33:12;7.38;;;6.57;;
22965;SDS011;11649;48.090;9.754;2023-04-03T00:35:39;9.07;;;7.38;;
22965;SDS011;11649;48.090;9.754;2023-04-03T00:38:06;8.10;;;7.18;;
22965;SDS011;11649;48.090;9.754;2023-04-03T00:40:34;8.13;;;6.80;;
22965;SDS011;11649;48.090;9.754;2023-04-03T00:43:09;9.60;;;8.05;;
22965;SDS011;11649;48.090;9.754;2023-04-03T00:45:51;8.95;;;6.93;;
22965;SDS011;11649;48.090;9.754;2023-04-03T00:48:20;8.93;;;7.30;;
22965;SDS011;11649;48.090;9.754;2023-04-03T00:50:57;8.70;;;7.28;;
22965;SDS011;11649;48.090;9.754;2023-04-03T00:53:33;9.40;;;7.70;;
22965;SDS011;11649;48.090;9.754;2023-04-03T00:56:06;8.75;;;7.40;;
22965;SDS011;11649;48.090;9.754;2023-04-03T00:58:37;8.50;;;7.60;;
22965;SDS011;11649;48.090;9.754;2023-04-03T01:01:11;9.00;;;7.43;;
22965;SDS011;11649;48.090;9.754;2023-04-03T01:03:41;8.05;;;6.93;;
22965;SDS011;11649;48.090;9.754;2023-04-03T01:06:08;9.35;;;7.47;;
22965;SDS011;11649;48.090;9.754;2023-04-03T01:08:35;8.98;;;7.40;;
22965;SDS011;11649;48.090;9.754;2023-04-03T01:11:02;8.65;;;7.35;;
22965;SDS011;11649;48.090;9.754;2023-04-03T01:13:30;9.10;;;7.28;;
22965;SDS011;11649;48.090;9.754;2023-04-03T01:16:04;8.25;;;6.95;;
22965;SDS011;11649;48.090;9.754;2023-04-03T01:18:31;8.55;;;7.30;;
22965;SDS011;11649;48.090;9.754;2023-04-03T01:23:58;7.78;;;6.97;;
22965;SDS011;11649;48.090;9.754;2023-04-03T01:26:45;7.60;;;6.80;;
22965;SDS011;11649;48.090;9.754;2023-04-03T01:29:11;8.00;;;6.60;;
22965;SDS011;11649;48.090;9.754;2023-04-03T01:32:00;7.82;;;6.80;;
22965;SDS011;11649;48.090;9.754;2023-04-03T01:34:27;8.65;;;7.03;;
22965;SDS011;11649;48.090;9.754;2023-04-03T01:36:55;7.40;;;6.45;;
22965;SDS011;11649;48.090;9.754;2023-04-03T01:39:22;8.25;;;7.35;;
22965;SDS011;11649;48.090;9.754;2023-04-03T01:41:49;9.23;;;7.30;;
22965;SDS011;11649;48.090;9.754;2023-04-03T01:44:16;8.07;;;6.95;;
22965;SDS011;11649;48.090;9.754;2023-04-03T01:46:43;8.50;;;6.70;;
22965;SDS011;11649;48.090;9.754;2023-04-03T01:49:10;7.72;;;6.35;;
22965;SDS011;11649;48.090;9.754;2023-04-03T01:51:36;7.18;;;6.28;;
22965;SDS011;11649;48.090;9.754;2023-04-03T01:54:03;8.75;;;6.35;;
22965;SDS011;11649;48.090;9.754;2023-04-03T01:56:30;7.18;;;6.40;;
22965;SDS011;11649;48.090;9.754;2023-04-03T01:58:57;7.40;;;6.22;;
22965;SDS011;11649;48.090;9.754;2023-04-03T02:01:24;6.35;;;5.60;;
22965;SDS011;11649;48.090;9.754;2023-04-03T02:03:52;6.90;;;6.00;;
22965;SDS011;11649;48.090;9.754;2023-04-03T02:06:19;6.13;;;5.50;;
22965;SDS011;11649;48.090;9.754;2023-04-03T02:08:46;7.22;;;5.88;;
22965;SDS011;11649;48.090;9.754;2023-04-03T02:11:12;6.82;;;5.53;;
22965;SDS011;11649;48.090;9.754;2023-04-03T02:13:39;7.05;;;5.03;;
22965;SDS011;11649;48.090;9.754;2023-04-03T02:16:07;7.13;;;5.50;;
22965;SDS011;11649;48.090;9.754;2023-04-03T02:18:38;6.95;;;5.18;;
22965;SDS011;11649;48.090;9.754;2023-04-03T02:21:05;6.65;;;5.47;;
22965;SDS011;11649;48.090;9.754;2023-04-03T02:23:32;6.53;;;5.32;;
22965;SDS011;11649;48.090;9.754;2023-04-03T02:26:03;6.28;;;5.45;;
22965;SDS011;11649;48.090;9.754;2023-04-03T02:28:34;6.40;;;5.13;;
22965;SDS011;11649;48.090;9.754;2023-04-03T02:31:02;6.72;;;5.20;;
22965;SDS011;11649;48.090;9.754;2023-04-03T02:33:30;6.32;;;5.68;;
22965;SDS011;11649;48.090;9.754;2023-04-03T02:35:57;6.88;;;5.55;;
22965;SDS011;11649;48.090;9.754;2023-04-03T02:38:24;6.45;;;5.18;;
22965;SDS011;11649;48.090;9.754;2023-04-03T02:40:52;6.25;;;5.45;;
22965;SDS011;11649;48.090;9.754;2023-04-03T02:43:19;7.05;;;6.22;;
22965;SDS011;11649;48.090;9.754;2023-04-03T02:45:45;9.95;;;5.88;;
22965;SDS011;11649;48.090;9.754;2023-04-03T02:48:12;6.00;;;5.40;;
22965;SDS011;11649;48.090;9.754;2023-04-03T02:50:41;8.02;;;6.03;;
22965;SDS011;11649;48.090;9.754;2023-04-03T02:53:07;7.65;;;5.88;;
22965;SDS011;11649;48.090;9.754;2023-04-03T02:55:34;6.97;;;5.38;;
22965;SDS011;11649;48.090;9.754;2023-04-03T02:58:01;6.95;;;5.75;;
22965;SDS011;11649;48.090;9.754;2023-04-03T03:00:28;7.07;;;6.18;;
22965;SDS011;11649;48.090;9.754;2023-04-03T03:02:55;6.40;;;5.53;;
22965;SDS011;11649;48.090;9.754;2023-04-03T03:05:22;6.03;;;5.43;;
22965;SDS011;11649;48.090;9.754;2023-04-03T03:07:48;7.55;;;5.70;;
22965;SDS011;11649;48.090;9.754;2023-04-03T03:10:15;8.05;;;6.03;;
22965;SDS011;11649;48.090;9.754;2023-04-03T03:12:42;8.77;;;5.80;;
22965;SDS011;11649;48.090;9.754;2023-04-03T03:15:09;5.97;;;5.28;;
22965;SDS011;11649;48.090;9.754;2023-04-03T03:17:36;6.68;;;5.63;;
22965;SDS011;11649;48.090;9.754;2023-04-03T03:20:04;7.25;;;5.40;;
22965;SDS011;11649;48.090;9.754;2023-04-03T03:22:32;7.13;;;5.55;;
22965;SDS011;11649;48.090;9.754;2023-04-03T03:24:59;6.85;;;5.68;;
22965;SDS011;11649;48.090;9.754;2023-04-03T03:27:27;7.25;;;5.80;;
22965;SDS011;11649;48.090;9.754;2023-04-03T03:29:54;8.75;;;5.60;;
22965;SDS011;11649;48.090;9.754;2023-04-03T03:32:38;7.38;;;5.35;;
22965;SDS011;11649;48.090;9.754;2023-04-03T03:35:06;6.05;;;4.38;;
22965;SDS011;11649;48.090;9.754;2023-04-03T03:37:33;6.40;;;5.30;;
22965;SDS011;11649;48.090;9.754;2023-04-03T03:39:59;6.25;;;5.32;;
22965;SDS011;11649;48.090;9.754;2023-04-03T03:42:26;6.20;;;5.13;;
22965;SDS011;11649;48.090;9.754;2023-04-03T03:44:53;6.45;;;5.25;;
22965;SDS011;11649;48.090;9.754;2023-04-03T03:47:20;6.95;;;5.30;;
22965;SDS011;11649;48.090;9.754;2023-04-03T03:49:47;8.00;;;5.63;;
22965;SDS011;11649;48.090;9.754;2023-04-03T03:52:14;6.80;;;5.40;;
22965;SDS011;11649;48.090;9.754;2023-04-03T03:54:40;6.30;;;4.90;;
22965;SDS011;11649;48.090;9.754;2023-04-03T03:57:07;7.75;;;5.57;;
22965;SDS011;11649;48.090;9.754;2023-04-03T03:59:34;6.53;;;5.40;;
22965;SDS011;11649;48.090;9.754;2023-04-03T04:02:01;6.03;;;5.40;;
22965;SDS011;11649;48.090;9.754;2023-04-03T04:04:28;8.52;;;5.47;;
22965;SDS011;11649;48.090;9.754;2023-04-03T04:06:55;5.90;;;5.00;;
22965;SDS011;11649;48.090;9.754;2023-04-03T04:09:22;5.68;;;4.95;;
22965;SDS011;11649;48.090;9.754;2023-04-03T04:11:48;8.68;;;5.35;;
22965;SDS011;11649;48.090;9.754;2023-04-03T04:14:15;6.63;;;4.97;;
22965;SDS011;11649;48.090;9.754;2023-04-03T04:16:42;6.03;;;5.10;;
22965;SDS011;11649;48.090;9.754;2023-04-03T04:19:09;6.53;;;4.70;;
22965;SDS011;11649;48.090;9.754;2023-04-03T04:21:36;5.85;;;4.72;;
22965;SDS011;11649;48.090;9.754;2023-04-03T04:24:03;7.32;;;5.28;;
22965;SDS011;11649;48.090;9.754;2023-04-03T04:26:30;5.82;;;4.78;;
22965;SDS011;11649;48.090;9.754;2023-04-03T04:28:56;6.80;;;4.93;;
22965;SDS011;11649;48.090;9.754;2023-04-03T04:31:23;5.68;;;4.95;;
22965;SDS011;11649;48.090;9.754;2023-04-03T04:33:50;6.32;;;4.90;;
22965;SDS011;11649;48.090;9.754;2023-04-03T04:36:17;6.50;;;5.60;;
22965;SDS011;11649;48.090;9.754;2023-04-03T04:38:44;7.15;;;4.95;;
22965;SDS011;11649;48.090;9.754;2023-04-03T04:41:11;6.32;;;4.97;;
22965;SDS011;11649;48.090;9.754;2023-04-03T04:43:38;7.55;;;5.32;;
22965;SDS011;11649;48.090;9.754;2023-04-03T04:46:05;7.57;;;4.82;;
22965;SDS011;11649;48.090;9.754;2023-04-03T04:48:34;5.88;;;4.82;;
22965;SDS011;11649;48.090;9.754;2023-04-03T04:51:02;6.40;;;4.75;;
22965;SDS011;11649;48.090;9.754;2023-04-03T04:53:29;6.15;;;4.80;;
22965;SDS011;11649;48.090;9.754;2023-04-03T04:55:56;5.30;;;4.63;;
22965;SDS011;11649;48.090;9.754;2023-04-03T04:58:23;5.38;;;4.85;;
22965;SDS011;11649;48.090;9.754;2023-04-03T05:00:50;5.40;;;4.45;;
22965;SDS011;11649;48.090;9.754;2023-04-03T05:03:23;5.57;;;4.97;;
22965;SDS011;11649;48.090;9.754;2023-04-03T05:05:50;6.03;;;4.70;;
22965;SDS011;11649;48.090;9.754;2023-04-03T05:08:17;5.22;;;4.45;;
22965;SDS011;11649;48.090;9.754;2023-04-03T05:10:44;8.70;;;4.88;;
22965;SDS011;11649;48.090;9.754;2023-04-03T05:13:12;5.43;;;4.35;;
22965;SDS011;11649;48.090;9.754;2023-04-03T05:15:39;6.15;;;4.53;;
22965;SDS011;11649;48.090;9.754;2023-04-03T05:18:07;5.40;;;4.63;;
22965;SDS011;11649;48.090;9.754;2023-04-03T05:20:34;7.80;;;4.78;;
22965;SDS011;11649;48.090;9.754;2023-04-03T05:23:01;7.95;;;5.28;;
22965;SDS011;11649;48.090;9.754;2023-04-03T05:25:29;5.45;;;4.07;;
22965;SDS011;11649;48.090;9.754;2023-04-03T05:27:56;5.85;;;4.45;;
22965;SDS011;11649;48.090;9.754;2023-04-03T05:30:22;5.38;;;4.30;;
22965;SDS011;11649;48.090;9.754;2023-04-03T05:32:49;4.75;;;3.83;;
22965;SDS011;11649;48.090;9.754;2023-04-03T05:35:16;7.20;;;4.40;;
22965;SDS011;11649;48.090;9.754;2023-04-03T05:37:43;8.38;;;4.03;;
22965;SDS011;11649;48.090;9.754;2023-04-03T05:40:10;6.25;;;4.20;;
22965;SDS011;11649;48.090;9.754;2023-04-03T05:42:37;5.25;;;4.18;;
22965;SDS011;11649;48.090;9.754;2023-04-03T05:45:04;4.32;;;3.80;;
22965;SDS011;11649;48.090;9.754;2023-04-03T05:47:31;5.75;;;4.00;;
22965;SDS011;11649;48.090;9.754;2023-04-03T05:49:58;4.28;;;3.50;;
22965;SDS011;11649;48.090;9.754;2023-04-03T05:52:26;4.40;;;3.90;;
22965;SDS011;11649;48.090;9.754;2023-04-03T05:54:54;4.57;;;3.83;;
22965;SDS011;11649;48.090;9.754;2023-04-03T05:57:22;4.90;;;3.85;;
22965;SDS011;11649;48.090;9.754;2023-04-03T05:59:49;4.47;;;3.50;;
22965;SDS011;11649;48.090;9.754;2023-04-03T06:02:17;6.65;;;4.40;;
22965;SDS011;11649;48.090;9.754;2023-04-03T06:04:47;5.75;;;4.10;;
22965;SDS011;11649;48.090;9.754;2023-04-03T06:07:15;7.25;;;4.05;;
22965;SDS011;11649;48.090;9.754;2023-04-03T06:09:45;6.13;;;3.90;;
22965;SDS011;11649;48.090;9.754;2023-04-03T06:12:12;4.55;;;3.85;;
22965;SDS011;11649;48.090;9.754;2023-04-03T06:14:39;5.22;;;4.15;;
22965;SDS011;11649;48.090;9.754;2023-04-03T06:17:06;4.75;;;3.83;;
22965;SDS011;11649;48.090;9.754;2023-04-03T06:19:35;4.40;;;3.40;;
22965;SDS011;11649;48.090;9.754;2023-04-03T06:22:02;4.93;;;3.88;;
22965;SDS011;11649;48.090;9.754;2023-04-03T06:28:16;5.50;;;3.85;;
22965;SDS011;11649;48.090;9.754;2023-04-03T06:30:45;5.88;;;4.15;;
22965;SDS011;11649;48.090;9.754;2023-04-03T06:33:12;4.75;;;3.95;;
22965;SDS011;11649;48.090;9.754;2023-04-03T06:35:38;5.03;;;4.05;;
22965;SDS011;11649;48.090;9.754;2023-04-03T06:38:05;5.35;;;3.72;;
22965;SDS011;11649;48.090;9.754;2023-04-03T06:40:35;4.43;;;3.50;;
22965;SDS011;11649;48.090;9.754;2023-04-03T06:43:02;4.45;;;3.60;;
22965;SDS011;11649;48.090;9.754;2023-04-03T06:45:29;5.07;;;3.70;;
22965;SDS011;11649;48.090;9.754;2023-04-03T06:47:56;5.35;;;3.95;;
22965;SDS011;11649;48.090;9.754;2023-04-03T06:50:23;4.50;;;3.60;;
22965;SDS011;11649;48.090;9.754;2023-04-03T06:52:50;4.97;;;3.75;;
22965;SDS011;11649;48.090;9.754;2023-04-03T06:55:17;4.20;;;3.63;;
22965;SDS011;11649;48.090;9.754;2023-04-03T06:57:44;5.30;;;3.70;;
22965;SDS011;11649;48.090;9.754;2023-04-03T07:00:11;5.18;;;3.97;;
22965;SDS011;11649;48.090;9.754;2023-04-03T07:02:39;4.80;;;3.78;;
22965;SDS011;11649;48.090;9.754;2023-04-03T07:05:06;5.18;;;3.70;;
22965;SDS011;11649;48.090;9.754;2023-04-03T07:07:33;4.95;;;3.70;;
22965;SDS011;11649;48.090;9.754;2023-04-03T07:10:00;6.40;;;4.00;;
22965;SDS011;11649;48.090;9.754;2023-04-03T07:12:27;6.38;;;3.78;;
22965;SDS011;11649;48.090;9.754;2023-04-03T07:14:54;5.15;;;3.90;;
22965;SDS011;11649;48.090;9.754;2023-04-03T07:17:20;4.97;;;3.70;;
22965;SDS011;11649;48.090;9.754;2023-04-03T07:19:47;5.38;;;3.75;;
22965;SDS011;11649;48.090;9.754;2023-04-03T07:22:14;6.05;;;4.25;;
22965;SDS011;11649;48.090;9.754;2023-04-03T07:24:41;5.28;;;3.65;;
22965;SDS011;11649;48.090;9.754;2023-04-03T07:27:07;4.30;;;3.63;;
22965;SDS011;11649;48.090;9.754;2023-04-03T07:29:34;5.28;;;4.03;;
22965;SDS011;11649;48.090;9.754;2023-04-03T07:32:02;4.20;;;3.35;;
22965;SDS011;11649;48.090;9.754;2023-04-03T07:34:29;3.80;;;3.40;;
22965;SDS011;11649;48.090;9.754;2023-04-03T07:36:56;4.38;;;3.65;;
22965;SDS011;11649;48.090;9.754;2023-04-03T07:39:24;4.30;;;3.58;;
22965;SDS011;11649;48.090;9.754;2023-04-03T07:41:51;6.75;;;3.90;;
22965;SDS011;11649;48.090;9.754;2023-04-03T07:44:18;4.43;;;3.72;;
22965;SDS011;11649;48.090;9.754;2023-04-03T07:46:45;5.18;;;3.83;;
22965;SDS011;11649;48.090;9.754;2023-04-03T07:49:12;4.18;;;3.63;;
22965;SDS011;11649;48.090;9.754;2023-04-03T07:51:39;4.38;;;3.50;;
22965;SDS011;11649;48.090;9.754;2023-04-03T07:54:06;6.93;;;3.88;;
22965;SDS011;11649;48.090;9.754;2023-04-03T07:56:33;5.22;;;3.78;;
22965;SDS011;11649;48.090;9.754;2023-04-03T07:59:00;5.65;;;4.20;;
22965;SDS011;11649;48.090;9.754;2023-04-03T08:01:27;5.45;;;3.88;;
22965;SDS011;11649;48.090;9.754;2023-04-03T08:03:54;6.45;;;4.10;;
22965;SDS011;11649;48.090;9.754;2023-04-03T08:06:21;3.92;;;3.53;;
22965;SDS011;11649;48.090;9.754;2023-04-03T08:09:03;5.38;;;4.13;;
22965;SDS011;11649;48.090;9.754;2023-04-03T08:11:30;6.32;;;4.10;;
22965;SDS011;11649;48.090;9.754;2023-04-03T08:13:57;5.32;;;4.05;;
22965;SDS011;11649;48.090;9.754;2023-04-03T08:16:24;7.38;;;4.28;;
22965;SDS011;11649;48.090;9.754;2023-04-03T08:18:54;5.72;;;4.40;;
22965;SDS011;11649;48.090;9.754;2023-04-03T08:21:21;4.20;;;3.58;;
22965;SDS011;11649;48.090;9.754;2023-04-03T08:23:48;4.45;;;3.80;;
22965;SDS011;11649;48.090;9.754;2023-04-03T08:26:20;6.10;;;3.95;;
22965;SDS011;11649;48.090;9.754;2023-04-03T08:28:48;7.05;;;4.10;;
22965;SDS011;11649;48.090;9.754;2023-04-03T08:31:16;5.28;;;4.00;;
22965;SDS011;11649;48.090;9.754;2023-04-03T08:33:45;5.68;;;3.95;;
22965;SDS011;11649;48.090;9.754;2023-04-03T08:36:20;5.03;;;3.90;;
22965;SDS011;11649;48.090;9.754;2023-04-03T08:38:49;6.00;;;4.25;;
22965;SDS011;11649;48.090;9.754;2023-04-03T08:41:24;5.78;;;4.70;;
22965;SDS011;11649;48.090;9.754;2023-04-03T08:44:46;7.97;;;4.50;;
22965;SDS011;11649;48.090;9.754;2023-04-03T08:49:51;5.35;;;4.35;;
22965;SDS011;11649;48.090;9.754;2023-04-03T08:52:31;4.72;;;4.22;;
22965;SDS011;11649;48.090;9.754;2023-04-03T08:55:01;4.97;;;4.40;;
22965;SDS011;11649;48.090;9.754;2023-04-03T08:57:33;5.18;;;4.05;;
22965;SDS011;11649;48.090;9.754;2023-04-03T09:02:41;5.70;;;4.50;;
22965;SDS011;11649;48.090;9.754;2023-04-03T09:05:14;6.43;;;4.32;;
22965;SDS011;11649;48.090;9.754;2023-04-03T09:07:44;5.45;;;4.15;;
22965;SDS011;11649;48.090;9.754;2023-04-03T09:10:23;5.38;;;4.18;;
22965;SDS011;11649;48.090;9.754;2023-04-03T09:12:56;6.25;;;4.43;;
22965;SDS011;11649;48.090;9.754;2023-04-03T09:15:31;5.55;;;3.95;;
22965;SDS011;11649;48.090;9.754;2023-04-03T09:20:49;5.30;;;4.20;;
22965;SDS011;11649;48.090;9.754;2023-04-03T09:26:06;4.63;;;3.70;;
22965;SDS011;11649;48.090;9.754;2023-04-03T09:28:38;4.60;;;3.45;;
22965;SDS011;11649;48.090;9.754;2023-04-03T09:33:47;5.90;;;4.00;;
22965;SDS011;11649;48.090;9.754;2023-04-03T09:39:10;5.75;;;3.65;;
22965;SDS011;11649;48.090;9.754;2023-04-03T09:41:39;4.45;;;3.65;;
22965;SDS011;11649;48.090;9.754;2023-04-03T09:44:18;7.13;;;3.58;;
22965;SDS011;11649;48.090;9.754;2023-04-03T09:46:48;4.10;;;3.20;;
22965;SDS011;11649;48.090;9.754;2023-04-03T09:49:16;3.95;;;3.13;;
22965;SDS011;11649;48.090;9.754;2023-04-03T09:51:44;4.53;;;3.13;;
22965;SDS011;11649;48.090;9.754;2023-04-03T09:54:31;4.20;;;3.53;;
22965;SDS011;11649;48.090;9.754;2023-04-03T09:57:21;3.47;;;2.97;;
22965;SDS011;11649;48.090;9.754;2023-04-03T09:59:58;3.30;;;2.78;;
22965;SDS011;11649;48.090;9.754;2023-04-03T10:02:44;3.63;;;2.70;;
22965;SDS011;11649;48.090;9.754;2023-04-03T10:10:48;4.38;;;3.45;;
22965;SDS011;11649;48.090;9.754;2023-04-03T10:13:50;3.97;;;3.00;;
22965;SDS011;11649;48.090;9.754;2023-04-03T10:16:20;4.25;;;2.85;;
22965;SDS011;11649;48.090;9.754;2023-04-03T10:25:04;4.50;;;3.20;;
22965;SDS011;11649;48.090;9.754;2023-04-03T10:30:52;3.22;;;2.80;;
22965;SDS011;11649;48.090;9.754;2023-04-03T10:33:52;5.05;;;3.30;;
22965;SDS011;11649;48.090;9.754;2023-04-03T10:36:38;5.95;;;3.25;;
22965;SDS011;11649;48.090;9.754;2023-04-03T10:39:30;4.15;;;3.10;;
22965;SDS011;11649;48.090;9.754;2023-04-03T10:42:25;3.33;;;2.90;;
22965;SDS011;11649;48.090;9.754;2023-04-03T10:48:17;4.22;;;2.83;;
22965;SDS011;11649;48.090;9.754;2023-04-03T10:51:12;3.30;;;2.80;;
22965;SDS011;11649;48.090;9.754;2023-04-03T10:57:01;3.28;;;2.90;;
22965;SDS011;11649;48.090;9.754;2023-04-03T11:02:18;3.40;;;2.70;;
22965;SDS011;11649;48.090;9.754;2023-04-03T11:04:55;4.15;;;3.00;;
22965;SDS011;11649;48.090;9.754;2023-04-03T11:07:30;4.88;;;3.35;;
22965;SDS011;11649;48.090;9.754;2023-04-03T11:10:10;4.57;;;3.20;;
22965;SDS011;11649;48.090;9.754;2023-04-03T11:12:56;3.28;;;2.50;;
22965;SDS011;11649;48.090;9.754;2023-04-03T11:15:34;3.10;;;2.72;;
22965;SDS011;11649;48.090;9.754;2023-04-03T11:18:02;3.38;;;2.67;;
22965;SDS011;11649;48.090;9.754;2023-04-03T11:20:37;3.10;;;2.72;;
22965;SDS011;11649;48.090;9.754;2023-04-03T11:23:19;6.63;;;3.00;;
22965;SDS011;11649;48.090;9.754;2023-04-03T11:25:53;5.25;;;2.88;;
22965;SDS011;11649;48.090;9.754;2023-04-03T11:28:23;4.30;;;2.85;;
22965;SDS011;11649;48.090;9.754;2023-04-03T11:36:47;3.90;;;3.00;;
22965;SDS011;11649;48.090;9.754;2023-04-03T11:39:30;3.92;;;3.40;;
22965;SDS011;11649;48.090;9.754;2023-04-03T11:44:53;5.50;;;3.45;;
22965;SDS011;11649;48.090;9.754;2023-04-03T11:47:54;3.92;;;2.92;;
22965;SDS011;11649;48.090;9.754;2023-04-03T11:58:03;4.05;;;3.03;;
22965;SDS011;11649;48.090;9.754;2023-04-03T12:16:23;4.45;;;3.30;;
22965;SDS011;11649;48.090;9.754;2023-04-03T12:21:22;4.38;;;3.10;;
22965;SDS011;11649;48.090;9.754;2023-04-03T12:23:57;5.15;;;3.20;;
22965;SDS011;11649;48.090;9.754;2023-04-03T12:26:30;3.47;;;2.85;;
22965;SDS011;11649;48.090;9.754;2023-04-03T12:31:43;3.25;;;2.95;;
22965;SDS011;11649;48.090;9.754;2023-04-03T12:37:21;3.45;;;2.75;;
22965;SDS011;11649;48.090;9.754;2023-04-03T12:45:40;5.57;;;3.17;;
22965;SDS011;11649;48.090;9.754;2023-04-03T12:48:18;3.90;;;2.88;;
22965;SDS011;11649;48.090;9.754;2023-04-03T12:50:50;4.38;;;3.00;;
22965;SDS011;11649;48.090;9.754;2023-04-03T12:53:19;3.63;;;2.72;;
22965;SDS011;11649;48.090;9.754;2023-04-03T12:56:17;3.55;;;2.83;;
22965;SDS011;11649;48.090;9.754;2023-04-03T12:58:50;7.72;;;3.25;;
22965;SDS011;11649;48.090;9.754;2023-04-03T13:01:23;6.25;;;3.15;;
22965;SDS011;11649;48.090;9.754;2023-04-03T13:03:52;3.78;;;3.08;;
22965;SDS011;11649;48.090;9.754;2023-04-03T13:06:26;3.90;;;2.53;;
22965;SDS011;11649;48.090;9.754;2023-04-03T13:08:58;4.13;;;3.00;;
22965;SDS011;11649;48.090;9.754;2023-04-03T13:11:32;5.23;;;2.90;;
22965;SDS011;11649;48.090;9.754;2023-04-03T13:14:03;3.50;;;3.20;;
22965;SDS011;11649;48.090;9.754;2023-04-03T13:16:40;3.70;;;2.65;;
22965;SDS011;11649;48.090;9.754;2023-04-03T13:19:15;3.15;;;2.70;;
22965;SDS011;11649;48.090;9.754;2023-04-03T13:21:43;5.32;;;3.60;;
22965;SDS011;11649;48.090;9.754;2023-04-03T13:24:11;4.82;;;3.40;;
22965;SDS011;11649;48.090;9.754;2023-04-03T13:26:41;5.07;;;3.40;;
22965;SDS011;11649;48.090;9.754;2023-04-03T13:29:19;5.20;;;3.67;;
22965;SDS011;11649;48.090;9.754;2023-04-03T13:31:58;4.40;;;3.25;;
22965;SDS011;11649;48.090;9.754;2023-04-03T13:34:27;4.25;;;3.25;;
22965;SDS011;11649;48.090;9.754;2023-04-03T13:37:02;6.20;;;3.10;;
22965;SDS011;11649;48.090;9.754;2023-04-03T13:39:32;3.53;;;2.92;;
22965;SDS011;11649;48.090;9.754;2023-04-03T13:42:01;4.60;;;2.70;;
22965;SDS011;11649;48.090;9.754;2023-04-03T13:45:24;3.83;;;3.30;;
22965;SDS011;11649;48.090;9.754;2023-04-03T13:48:19;4.88;;;2.70;;
22965;SDS011;11649;48.090;9.754;2023-04-03T13:53:20;4.25;;;2.97;;
22965;SDS011;11649;48.090;9.754;2023-04-03T13:58:24;6.82;;;3.35;;
22965;SDS011;11649;48.090;9.754;2023-04-03T14:00:54;3.83;;;2.90;;
22965;SDS011;11649;48.090;9.754;2023-04-03T14:03:30;5.15;;;3.17;;
22965;SDS011;11649;48.090;9.754;2023-04-03T14:06:00;4.57;;;3.17;;
22965;SDS011;11649;48.090;9.754;2023-04-03T14:08:27;4.40;;;3.60;;
22965;SDS011;11649;48.090;9.754;2023-04-03T14:11:09;5.85;;;3.10;;
22965;SDS011;11649;48.090;9.754;2023-04-03T14:13:40;4.25;;;3.10;;
22965;SDS011;11649;48.090;9.754;2023-04-03T14:16:11;5.50;;;2.83;;
22965;SDS011;11649;48.090;9.754;2023-04-03T14:18:41;4.75;;;3.20;;
22965;SDS011;11649;48.090;9.754;2023-04-03T14:21:10;3.83;;;2.63;;
22965;SDS011;11649;48.090;9.754;2023-04-03T14:23:38;3.67;;;2.75;;
22965;SDS011;11649;48.090;9.754;2023-04-03T14:26:24;4.63;;;3.55;;
22965;SDS011;11649;48.090;9.754;2023-04-03T14:28:54;3.67;;;2.80;;
22965;SDS011;11649;48.090;9.754;2023-04-03T14:31:22;3.90;;;2.90;;
22965;SDS011;11649;48.090;9.754;2023-04-03T14:33:49;7.90;;;3.30;;
22965;SDS011;11649;48.090;9.754;2023-04-03T14:36:18;4.35;;;3.10;;
22965;SDS011;11649;48.090;9.754;2023-04-03T14:38:47;5.20;;;3.30;;
22965;SDS011;11649;48.090;9.754;2023-04-03T14:41:16;4.80;;;3.38;;
22965;SDS011;11649;48.090;9.754;2023-04-03T14:43:45;4.32;;;2.95;;
22965;SDS011;11649;48.090;9.754;2023-04-03T14:48:42;4.15;;;3.00;;
22965;SDS011;11649;48.090;9.754;2023-04-03T14:51:11;4.40;;;3.22;;
22965;SDS011;11649;48.090;9.754;2023-04-03T14:53:39;6.00;;;3.05;;
22965;SDS011;11649;48.090;9.754;2023-04-03T14:56:11;4.95;;;3.20;;
22965;SDS011;11649;48.090;9.754;2023-04-03T14:58:48;4.20;;;2.90;;
22965;SDS011;11649;48.090;9.754;2023-04-03T15:01:24;4.00;;;2.92;;
22965;SDS011;11649;48.090;9.754;2023-04-03T15:03:51;4.80;;;3.40;;
22965;SDS011;11649;48.090;9.754;2023-04-03T15:06:19;4.95;;;3.17;;
22965;SDS011;11649;48.090;9.754;2023-04-03T15:08:47;5.32;;;2.95;;
22965;SDS011;11649;48.090;9.754;2023-04-03T15:11:14;4.35;;;2.85;;
22965;SDS011;11649;48.090;9.754;2023-04-03T15:13:41;5.45;;;3.30;;
22965;SDS011;11649;48.090;9.754;2023-04-03T15:16:12;4.57;;;2.95;;
22965;SDS011;11649;48.090;9.754;2023-04-03T15:18:45;4.60;;;3.00;;
22965;SDS011;11649;48.090;9.754;2023-04-03T15:21:13;4.50;;;3.15;;
22965;SDS011;11649;48.090;9.754;2023-04-03T15:23:40;5.72;;;3.20;;
22965;SDS011;11649;48.090;9.754;2023-04-03T15:26:08;4.25;;;2.63;;
22965;SDS011;11649;48.090;9.754;2023-04-03T15:28:39;3.97;;;3.00;;
22965;SDS011;11649;48.090;9.754;2023-04-03T15:31:08;3.33;;;2.80;;
22965;SDS011;11649;48.090;9.754;2023-04-03T15:33:35;3.80;;;2.67;;
22965;SDS011;11649;48.090;9.754;2023-04-03T15:36:03;3.47;;;2.50;;
22965;SDS011;11649;48.090;9.754;2023-04-03T15:41:04;4.13;;;2.60;;
22965;SDS011;11649;48.090;9.754;2023-04-03T15:43:31;3.20;;;2.50;;
22965;SDS011;11649;48.090;9.754;2023-04-03T15:45:59;3.28;;;2.50;;
22965;SDS011;11649;48.090;9.754;2023-04-03T15:48:27;4.68;;;2.97;;
22965;SDS011;11649;48.090;9.754;2023-04-03T15:50:54;4.05;;;2.75;;
22965;SDS011;11649;48.090;9.754;2023-04-03T15:53:24;4.60;;;3.10;;
22965;SDS011;11649;48.090;9.754;2023-04-03T15:55:51;4.68;;;2.85;;
22965;SDS011;11649;48.090;9.754;2023-04-03T15:58:17;5.70;;;3.38;;
22965;SDS011;11649;48.090;9.754;2023-04-03T16:00:44;5.25;;;3.05;;
22965;SDS011;11649;48.090;9.754;2023-04-03T16:03:12;4.65;;;3.33;;
22965;SDS011;11649;48.090;9.754;2023-04-03T16:05:43;4.82;;;3.22;;
22965;SDS011;11649;48.090;9.754;2023-04-03T16:08:10;3.78;;;2.90;;
22965;SDS011;11649;48.090;9.754;2023-04-03T16:10:37;4.07;;;2.85;;
22965;SDS011;11649;48.090;9.754;2023-04-03T16:13:06;4.13;;;3.00;;
22965;SDS011;11649;48.090;9.754;2023-04-03T16:15:32;4.10;;;2.85;;
22965;SDS011;11649;48.090;9.754;2023-04-03T16:18:01;3.60;;;2.78;;
22965;SDS011;11649;48.090;9.754;2023-04-03T16:20:29;5.60;;;3.05;;
22965;SDS011;11649;48.090;9.754;2023-04-03T16:22:59;4.88;;;3.10;;
22965;SDS011;11649;48.090;9.754;2023-04-03T16:25:27;5.28;;;2.78;;
22965;SDS011;11649;48.090;9.754;2023-04-03T16:27:54;3.67;;;2.78;;
22965;SDS011;11649;48.090;9.754;2023-04-03T16:30:21;5.35;;;2.65;;
22965;SDS011;11649;48.090;9.754;2023-04-03T16:32:49;3.70;;;2.78;;
22965;SDS011;11649;48.090;9.754;2023-04-03T16:35:16;3.22;;;2.58;;
22965;SDS011;11649;48.090;9.754;2023-04-03T16:37:42;5.70;;;2.40;;
22965;SDS011;11649;48.090;9.754;2023-04-03T16:40:09;3.55;;;2.40;;
22965;SDS011;11649;48.090;9.754;2023-04-03T16:42:38;5.63;;;2.60;;
22965;SDS011;11649;48.090;9.754;2023-04-03T16:45:05;2.80;;;2.30;;
22965;SDS011;11649;48.090;9.754;2023-04-03T16:47:32;3.35;;;2.20;;
22965;SDS011;11649;48.090;9.754;2023-04-03T16:49:59;3.13;;;2.40;;